createdAt,value
2023-03-02T00:01:10.475Z,100203.38
2023-03-02T00:03:39.173Z,100200.81
2023-03-02T00:06:06.781Z,100207.69
2023-03-02T00:08:35.051Z,100205.13
2023-03-02T00:11:02.264Z,100200.47
2023-03-02T00:13:31.169Z,100201.91
2023-03-02T00:15:57.845Z,100214.41
2023-03-02T00:18:24.479Z,100200.66
2023-03-02T00:20:51.045Z,100189.78
2023-03-02T00:23:17.773Z,100189.78
2023-03-02T00:25:44.380Z,100191.13
2023-03-02T00:28:10.960Z,100183.97
2023-03-02T00:30:38.657Z,100182.38
2023-03-02T00:33:05.275Z,100190.84
2023-03-02T00:35:37.242Z,100182.53
2023-03-02T00:38:03.882Z,100180.28
2023-03-02T00:40:30.532Z,100176.09
2023-03-02T00:42:57.073Z,100176.53
2023-03-02T00:45:23.688Z,100172.56
2023-03-02T00:47:50.323Z,100173.72
2023-03-02T00:50:17.016Z,100171.69
2023-03-02T00:52:43.591Z,100171.22
2023-03-02T00:55:10.224Z,100175.06
2023-03-02T00:57:36.917Z,100167.91
2023-03-02T01:00:04.965Z,100166.31
2023-03-02T01:02:39.045Z,100163.13
2023-03-02T01:05:05.955Z,100160.28
2023-03-02T01:07:33.392Z,100158.22
2023-03-02T01:10:00.014Z,100157.41
2023-03-02T01:12:26.648Z,100147.03
2023-03-02T01:14:53.660Z,100148.31
2023-03-02T01:17:22.064Z,100142.25
2023-03-02T01:19:48.736Z,100143.84
2023-03-02T01:22:15.448Z,100143.38
2023-03-02T01:24:42.020Z,100142.13
2023-03-02T01:27:08.711Z,100137.97
2023-03-02T01:29:35.492Z,100134.63
2023-03-02T01:32:02.923Z,100124.22
2023-03-02T01:34:29.873Z,100119.13
2023-03-02T01:36:56.595Z,100122.47
2023-03-02T01:39:23.271Z,100125.03
2023-03-02T01:46:07.101Z,100118.44
2023-03-02T01:48:47.988Z,100114.47
2023-03-02T01:51:23.355Z,100121.50
2023-03-02T01:54:02.048Z,100117.81
2023-03-02T01:56:36.118Z,100113.84
2023-03-02T01:59:08.802Z,100113.03
2023-03-02T02:01:39.277Z,100118.31
2023-03-02T02:04:06.533Z,100115.31
2023-03-02T02:06:37.442Z,100120.91
2023-03-02T02:09:08.260Z,100113.91
2023-03-02T02:11:35.581Z,100107.38
2023-03-02T02:14:03.342Z,100122.38
2023-03-02T02:16:33.212Z,100109.75
2023-03-02T02:19:01.602Z,100116.16
2023-03-02T02:21:29.319Z,100125.44
2023-03-02T02:24:21.469Z,100113.97
2023-03-02T02:26:51.348Z,100110.63
2023-03-02T02:29:24.216Z,100109.19
2023-03-02T02:32:19.397Z,100102.00
2023-03-02T02:34:59.419Z,100101.53
2023-03-02T02:37:35.623Z,100104.25
2023-03-02T02:40:09.037Z,100089.13
2023-03-02T02:42:41.793Z,100095.19
2023-03-02T02:45:20.124Z,100096.31
2023-03-02T02:47:47.659Z,100088.00
2023-03-02T02:50:28.376Z,100080.69
2023-03-02T02:53:05.480Z,100094.06
2023-03-02T02:55:35.335Z,100083.53
2023-03-02T02:58:09.901Z,100082.28
2023-03-02T03:00:37.310Z,100083.25
2023-03-02T03:03:29.027Z,100082.13
2023-03-02T03:06:04.440Z,100075.56
2023-03-02T03:08:43.376Z,100075.56
2023-03-02T03:11:16.275Z,100073.97
2023-03-02T03:13:44.450Z,100073.66
2023-03-02T03:16:15.535Z,100074.63
2023-03-02T03:18:45.220Z,100077.50
2023-03-02T03:21:11.887Z,100079.75
2023-03-02T03:23:38.741Z,100075.78
2023-03-02T03:26:07.628Z,100078.31
2023-03-02T03:28:35.683Z,100088.06
2023-03-02T03:31:03.456Z,100089.03
2023-03-02T03:33:30.288Z,100083.78
2023-03-02T03:35:57.030Z,100081.88
2023-03-02T03:38:23.790Z,100081.72
2023-03-02T03:40:50.476Z,100087.59
2023-03-02T03:43:17.242Z,100086.66
2023-03-02T03:45:51.969Z,100086.97
2023-03-02T03:48:19.525Z,100077.72
2023-03-02T03:50:47.712Z,100078.19
2023-03-02T03:53:14.327Z,100077.38
2023-03-02T03:55:41.103Z,100076.28
2023-03-02T03:58:07.862Z,100077.06
2023-03-02T04:00:35.219Z,100080.75
2023-03-02T04:03:07.070Z,100074.22
2023-03-02T04:05:34.407Z,100076.44
2023-03-02T04:08:03.332Z,100083.00
2023-03-02T04:10:30.635Z,100083.78
2023-03-02T04:12:57.558Z,100084.09
2023-03-02T04:15:24.880Z,100079.81
2023-03-02T04:17:52.717Z,100081.88
2023-03-02T04:20:22.303Z,100071.34
2023-03-02T04:22:53.849Z,100078.19
2023-03-02T04:25:23.797Z,100083.47
2023-03-02T04:27:54.474Z,100073.88
2023-03-02T04:30:25.022Z,100073.75
2023-03-02T04:32:52.142Z,100067.53
2023-03-02T04:35:20.294Z,100077.56
2023-03-02T04:37:47.433Z,100077.41
2023-03-02T04:40:15.986Z,100077.09
2023-03-02T04:42:44.590Z,100079.63
2023-03-02T04:45:11.754Z,100079.00
2023-03-02T04:47:38.570Z,100074.53
2023-03-02T04:50:05.874Z,100078.34
2023-03-02T04:52:32.566Z,100069.91
2023-03-02T04:54:59.141Z,100081.56
2023-03-02T04:57:25.757Z,100074.41
2023-03-02T04:59:52.414Z,100077.09
2023-03-02T05:02:19.074Z,100076.16
2023-03-02T05:04:45.822Z,100082.22
2023-03-02T05:07:12.404Z,100072.81
2023-03-02T05:09:39.046Z,100073.75
2023-03-02T05:12:05.857Z,100074.56
2023-03-02T05:14:33.063Z,100068.03
2023-03-02T05:16:59.734Z,100068.50
2023-03-02T05:19:26.768Z,100070.09
2023-03-02T05:21:53.474Z,100064.03
2023-03-02T05:24:20.176Z,100061.50
2023-03-02T05:26:46.766Z,100060.53
2023-03-02T05:29:13.377Z,100055.28
2023-03-02T05:31:43.301Z,100054.63
2023-03-02T05:34:12.423Z,100054.78
2023-03-02T05:36:39.751Z,100062.59
2023-03-02T05:39:07.006Z,100063.72
2023-03-02T05:41:34.081Z,100060.53
2023-03-02T05:44:01.039Z,100066.28
2023-03-02T05:46:28.012Z,100067.06
2023-03-02T05:48:54.602Z,100072.00
2023-03-02T05:51:21.340Z,100070.09
2023-03-02T05:53:48.000Z,100065.63
2023-03-02T05:56:14.677Z,100062.28
2023-03-02T05:58:41.330Z,100065.63
2023-03-02T06:01:12.568Z,100073.44
2023-03-02T06:03:41.411Z,100078.88
2023-03-02T06:06:08.256Z,100077.59
2023-03-02T06:08:35.014Z,100080.78
2023-03-02T06:11:01.695Z,100076.31
2023-03-02T06:13:28.382Z,100076.94
2023-03-02T06:15:55.012Z,100077.91
2023-03-02T06:18:21.761Z,100088.28
2023-03-02T06:20:50.499Z,100081.25
2023-03-02T06:23:17.142Z,100084.28
2023-03-02T06:25:48.572Z,100088.13
2023-03-02T06:28:16.576Z,100088.44
2023-03-02T06:30:43.236Z,100083.31
2023-03-02T06:33:09.794Z,100085.56
2023-03-02T06:35:36.544Z,100078.53
2023-03-02T06:38:03.372Z,100079.81
2023-03-02T06:40:30.265Z,100076.94
2023-03-02T06:42:57.052Z,100075.47
2023-03-02T06:45:23.596Z,100080.09
2023-03-02T06:47:50.221Z,100079.28
2023-03-02T06:50:16.980Z,100070.97
2023-03-02T06:52:43.573Z,100073.19
2023-03-02T06:55:10.461Z,100070.16
2023-03-02T06:57:39.581Z,100075.56
2023-03-02T07:00:18.729Z,100068.50
2023-03-02T07:02:46.701Z,100066.25
2023-03-02T07:05:13.293Z,100066.56
2023-03-02T07:07:40.488Z,100065.28
2023-03-02T07:10:08.384Z,100061.91
2023-03-02T07:12:35.131Z,100070.34
2023-03-02T07:15:02.408Z,100070.47
2023-03-02T07:17:30.081Z,100070.59
2023-03-02T07:19:56.683Z,100069.75
2023-03-02T07:22:23.302Z,100068.91
2023-03-02T07:24:49.899Z,100070.47
2023-03-02T07:27:16.539Z,100075.53
2023-03-02T07:29:43.142Z,100072.28
2023-03-02T07:32:12.391Z,100078.75
2023-03-02T07:34:39.528Z,100077.56
2023-03-02T07:37:06.214Z,100076.81
2023-03-02T07:39:32.761Z,100079.97
2023-03-02T07:42:04.384Z,100072.31
2023-03-02T07:44:31.385Z,100067.41
2023-03-02T07:46:59.468Z,100063.59
2023-03-02T07:49:26.421Z,100052.84
2023-03-02T07:51:53.112Z,100054.06
2023-03-02T07:54:19.719Z,100060.34
2023-03-02T07:56:47.506Z,100061.13
2023-03-02T07:59:14.421Z,100051.91
2023-03-02T08:01:41.083Z,100052.72
2023-03-02T08:04:07.922Z,100053.91
2023-03-02T08:06:34.488Z,100060.56
2023-03-02T08:09:04.400Z,100069.19
2023-03-02T08:11:31.403Z,100075.84
2023-03-02T08:14:02.815Z,100068.22
2023-03-02T08:16:30.158Z,100069.66
2023-03-02T08:18:59.317Z,100075.72
2023-03-02T08:21:27.504Z,100069.72
2023-03-02T08:23:54.225Z,100075.31
2023-03-02T08:26:21.170Z,100074.38
2023-03-02T08:28:48.076Z,100076.44
2023-03-02T08:31:15.391Z,100069.78
2023-03-02T08:33:42.489Z,100071.81
2023-03-02T08:36:16.506Z,100074.88
2023-03-02T08:38:44.556Z,100068.59
2023-03-02T08:41:14.727Z,100069.06
2023-03-02T08:43:41.627Z,100065.53
2023-03-02T08:46:08.684Z,100066.94
2023-03-02T08:48:35.278Z,100054.69
2023-03-02T08:51:08.094Z,100053.91
2023-03-02T08:53:40.810Z,100052.72
2023-03-02T08:56:29.135Z,100050.16
2023-03-02T08:59:00.611Z,100044.81
2023-03-02T09:01:32.188Z,100056.31
2023-03-02T09:04:00.713Z,100049.59
2023-03-02T09:06:29.624Z,100049.59
2023-03-02T09:08:57.293Z,100039.47
2023-03-02T09:11:24.397Z,100051.75
2023-03-02T09:13:51.052Z,100032.31
2023-03-02T09:16:20.722Z,100039.03
2023-03-02T09:18:48.181Z,100039.75
2023-03-02T09:21:14.943Z,100037.03
2023-03-02T09:23:41.887Z,100039.66
2023-03-02T09:26:09.552Z,100036.22
2023-03-02T09:28:36.958Z,100042.16
2023-03-02T09:31:05.766Z,100037.19
2023-03-02T09:33:33.390Z,100029.44
2023-03-02T09:36:04.831Z,100027.50
2023-03-02T09:38:31.663Z,100025.63
2023-03-02T09:41:12.120Z,100025.09
2023-03-02T09:44:15.442Z,100018.97
2023-03-02T09:46:49.454Z,100033.66
2023-03-02T09:49:31.655Z,100021.38
2023-03-02T09:52:27.442Z,100031.03
2023-03-02T09:54:54.642Z,100024.56
2023-03-02T09:57:25.467Z,100021.47
2023-03-02T10:00:23.579Z,100026.75
2023-03-02T10:02:58.763Z,100023.47
2023-03-02T10:05:38.550Z,100021.72
2023-03-02T10:08:05.715Z,100018.03
2023-03-02T10:11:03.728Z,100024.00
2023-03-02T10:13:36.525Z,100016.56
2023-03-02T10:16:15.801Z,100012.53
2023-03-02T10:18:42.346Z,100009.41
2023-03-02T10:21:11.546Z,100008.91
2023-03-02T10:23:56.268Z,100001.03
2023-03-02T10:26:49.886Z,99996.78
2023-03-02T10:29:28.378Z,99999.22
2023-03-02T10:32:04.368Z,99998.75
2023-03-02T10:34:31.591Z,99995.00
2023-03-02T10:36:58.568Z,99997.66
2023-03-02T10:39:25.228Z,99997.25
2023-03-02T10:42:03.565Z,99994.75
2023-03-02T10:44:39.279Z,99989.66
2023-03-02T10:47:07.634Z,99986.50
2023-03-02T10:49:36.813Z,99993.31
2023-03-02T10:52:13.614Z,99987.53
2023-03-02T10:54:41.073Z,99986.53
2023-03-02T10:57:31.398Z,99987.06
2023-03-02T11:00:13.995Z,99991.53
2023-03-02T11:02:49.815Z,99987.72
2023-03-02T11:05:29.057Z,99981.97
2023-03-02T11:08:02.688Z,99983.34
2023-03-02T11:10:41.062Z,99975.25
2023-03-02T11:13:28.532Z,99980.19
2023-03-02T11:16:01.281Z,99963.88
2023-03-02T11:18:52.694Z,99968.25
2023-03-02T11:21:43.640Z,99961.75
2023-03-02T11:24:19.228Z,99956.97
2023-03-02T11:26:54.472Z,99953.59
2023-03-02T11:29:45.484Z,99945.22
2023-03-02T11:32:15.636Z,99948.00
2023-03-02T11:35:05.044Z,99940.03
2023-03-02T11:37:52.377Z,99934.28
2023-03-02T11:40:36.810Z,99940.56
2023-03-02T11:43:06.837Z,99935.44
2023-03-02T11:45:38.206Z,99939.78
2023-03-02T11:48:18.445Z,99942.94
2023-03-02T11:50:57.214Z,99937.16
2023-03-02T11:53:31.997Z,99931.88
2023-03-02T11:55:58.826Z,99930.13
2023-03-02T11:58:28.314Z,99933.47
2023-03-02T12:00:56.151Z,99924.25
2023-03-02T12:03:31.631Z,99919.09
2023-03-02T12:06:07.230Z,99920.22
2023-03-02T12:08:41.450Z,99910.59
2023-03-02T12:11:34.224Z,99905.66
2023-03-02T12:14:04.480Z,99916.63
2023-03-02T12:16:42.253Z,99905.56
2023-03-02T12:19:17.906Z,99912.78
2023-03-02T12:22:06.800Z,99905.00
2023-03-02T12:24:36.657Z,99905.00
2023-03-02T12:27:15.549Z,99892.69
2023-03-02T12:29:46.543Z,99899.53
2023-03-02T12:32:33.510Z,99903.56
2023-03-02T12:35:09.476Z,99898.00
2023-03-02T12:37:53.629Z,99884.88
2023-03-02T12:40:23.255Z,99886.63
2023-03-02T12:42:55.794Z,99879.97
2023-03-02T12:45:37.370Z,99878.34
2023-03-02T12:48:22.801Z,99874.66
2023-03-02T12:50:51.237Z,99880.34
2023-03-02T12:53:20.153Z,99867.97
2023-03-02T12:55:47.166Z,99874.28
2023-03-02T12:58:20.234Z,99870.19
2023-03-02T13:00:58.337Z,99854.75
2023-03-02T13:03:26.805Z,99861.88
2023-03-02T13:06:17.281Z,99854.03
2023-03-02T13:08:48.187Z,99857.16
2023-03-02T13:11:24.442Z,99849.69
2023-03-02T13:13:51.260Z,99854.97
2023-03-02T13:16:28.162Z,99851.22
2023-03-02T13:18:57.768Z,99847.19
2023-03-02T13:21:37.601Z,99834.09
2023-03-02T13:24:20.480Z,99845.56
2023-03-02T13:26:56.361Z,99842.25
2023-03-02T13:29:27.019Z,99837.72
2023-03-02T13:31:55.225Z,99835.22
2023-03-02T13:34:27.887Z,99837.09
2023-03-02T13:36:55.116Z,99825.59
2023-03-02T13:39:31.646Z,99820.22
2023-03-02T13:42:00.976Z,99823.34
2023-03-02T13:44:35.310Z,99820.78
2023-03-02T13:47:02.399Z,99828.34
2023-03-02T13:49:32.501Z,99807.50
2023-03-02T13:52:08.391Z,99816.44
2023-03-02T13:54:37.507Z,99813.97
2023-03-02T13:57:06.230Z,99808.03
2023-03-02T13:59:36.347Z,99802.03
2023-03-02T14:02:03.356Z,99804.59
2023-03-02T14:04:30.150Z,99809.75
2023-03-02T14:06:56.849Z,99811.03
2023-03-02T14:09:23.707Z,99809.88
2023-03-02T14:11:53.482Z,99809.81
2023-03-02T14:14:23.871Z,99805.72
2023-03-02T14:16:51.254Z,99801.84
2023-03-02T14:19:18.659Z,99809.06
2023-03-02T14:21:46.626Z,99793.34
2023-03-02T14:24:14.529Z,99799.53
2023-03-02T14:26:46.270Z,99797.94
2023-03-02T14:29:31.442Z,99792.16
2023-03-02T14:32:00.325Z,99792.91
2023-03-02T14:34:27.007Z,99784.53
2023-03-02T14:36:56.541Z,99779.28
2023-03-02T14:39:32.218Z,99787.56
2023-03-02T14:41:59.736Z,99780.28
2023-03-02T14:44:26.671Z,99775.00
2023-03-02T14:46:53.350Z,99776.81
2023-03-02T14:49:21.085Z,99767.72
2023-03-02T14:51:54.891Z,99769.16
2023-03-02T14:54:21.810Z,99765.25
2023-03-02T14:56:50.485Z,99766.28
2023-03-02T14:59:17.358Z,99759.34
2023-03-02T15:01:46.926Z,99757.47
2023-03-02T15:04:13.546Z,99762.63
2023-03-02T15:06:42.295Z,99762.28
2023-03-02T15:09:11.912Z,99754.53
2023-03-02T15:11:38.552Z,99752.13
2023-03-02T15:14:05.131Z,99755.50
2023-03-02T15:16:33.035Z,99747.94
2023-03-02T15:18:59.941Z,99751.00
2023-03-02T15:21:26.578Z,99754.38
2023-03-02T15:23:53.322Z,99749.72
2023-03-02T15:26:19.986Z,99752.81
2023-03-02T15:28:50.694Z,99739.44
2023-03-02T15:31:18.343Z,99746.16
2023-03-02T15:33:45.537Z,99737.28
2023-03-02T15:36:13.297Z,99743.38
2023-03-02T15:38:40.326Z,99733.22
2023-03-02T15:41:10.276Z,99732.19
2023-03-02T15:43:37.114Z,99740.19
2023-03-02T15:46:05.420Z,99737.28
2023-03-02T15:48:32.550Z,99748.91
2023-03-02T15:51:00.752Z,99740.88
2023-03-02T15:53:28.972Z,99748.50
2023-03-02T15:55:56.141Z,99743.28
2023-03-02T15:58:23.358Z,99745.09
2023-03-02T16:00:50.865Z,99743.47
2023-03-02T16:03:19.284Z,99748.81
2023-03-02T16:05:46.937Z,99746.44
2023-03-02T16:08:13.694Z,99735.94
2023-03-02T16:10:42.905Z,99739.25
2023-03-02T16:13:11.717Z,99742.00
2023-03-02T16:15:42.059Z,99744.31
2023-03-02T16:18:11.451Z,99741.78
2023-03-02T16:20:39.691Z,99735.56
2023-03-02T16:23:08.515Z,99743.94
2023-03-02T16:25:39.628Z,99735.84
2023-03-02T16:28:07.125Z,99747.34
2023-03-02T16:30:34.925Z,99750.97
2023-03-02T16:33:03.536Z,99752.66
2023-03-02T16:35:33.161Z,99752.53
2023-03-02T16:38:00.601Z,99753.75
2023-03-02T16:40:28.041Z,99753.22
2023-03-02T16:42:55.082Z,99752.00
2023-03-02T16:45:22.933Z,99757.00
2023-03-02T16:47:49.891Z,99766.25
2023-03-02T16:50:17.423Z,99768.88
2023-03-02T16:52:44.833Z,99759.75
2023-03-02T16:55:18.812Z,99762.34
2023-03-02T16:57:46.424Z,99767.28
2023-03-02T17:00:18.471Z,99774.47
2023-03-02T17:02:45.103Z,99767.59
2023-03-02T17:05:13.519Z,99779.59
2023-03-02T17:07:40.260Z,99768.88
2023-03-02T17:10:08.020Z,99771.28
2023-03-02T17:12:34.619Z,99774.06
2023-03-02T17:15:01.205Z,99777.34
2023-03-02T17:17:27.740Z,99779.75
2023-03-02T17:19:54.352Z,99782.47
2023-03-02T17:22:20.883Z,99781.63
2023-03-02T17:24:47.539Z,99779.69
2023-03-02T17:27:24.595Z,99783.13
2023-03-02T17:29:52.968Z,99781.97
2023-03-02T17:32:21.954Z,99789.72
2023-03-02T17:34:48.796Z,99780.09
2023-03-02T17:37:17.512Z,99779.16
2023-03-02T17:39:44.194Z,99777.31
2023-03-02T17:42:10.944Z,99780.88
2023-03-02T17:44:38.977Z,99785.16
2023-03-02T17:47:08.154Z,99787.94
2023-03-02T17:49:39.528Z,99783.56
2023-03-02T17:52:06.356Z,99787.56
2023-03-02T17:54:32.895Z,99781.03
2023-03-02T17:56:59.562Z,99778.72
2023-03-02T17:59:26.516Z,99783.50
2023-03-02T18:01:53.415Z,99788.72
2023-03-02T18:04:20.951Z,99795.13
2023-03-02T18:06:53.031Z,99792.56
2023-03-02T18:09:22.081Z,99794.53
2023-03-02T18:11:48.822Z,99790.22
2023-03-02T18:14:19.206Z,99788.47
2023-03-02T18:16:46.190Z,99789.69
2023-03-02T18:19:13.075Z,99791.69
2023-03-02T18:21:41.718Z,99789.69
2023-03-02T18:24:09.421Z,99796.63
2023-03-02T18:26:38.045Z,99799.81
2023-03-02T18:29:04.956Z,99800.81
2023-03-02T18:31:33.953Z,99795.13
2023-03-02T18:34:01.615Z,99806.03
2023-03-02T18:36:28.583Z,99816.97
2023-03-02T18:38:55.265Z,99815.75
2023-03-02T18:41:24.001Z,99817.56
2023-03-02T18:43:51.754Z,99812.88
2023-03-02T18:46:21.393Z,99817.03
2023-03-02T18:48:50.166Z,99818.00
2023-03-02T18:51:18.650Z,99823.31
2023-03-02T18:53:45.543Z,99827.66
2023-03-02T18:56:12.253Z,99823.81
2023-03-02T18:58:39.735Z,99822.91
2023-03-02T19:01:07.281Z,99825.72
2023-03-02T19:03:35.467Z,99821.88
2023-03-02T19:06:02.090Z,99832.38
2023-03-02T19:08:29.543Z,99833.75
2023-03-02T19:10:56.200Z,99834.38
2023-03-02T19:13:23.896Z,99838.16
2023-03-02T19:15:50.698Z,99838.91
2023-03-02T19:18:19.590Z,99838.91
2023-03-02T19:20:48.390Z,99833.78
2023-03-02T19:23:15.544Z,99847.06
2023-03-02T19:25:46.988Z,99843.09
2023-03-02T19:28:14.600Z,99845.94
2023-03-02T19:30:41.524Z,99845.34
2023-03-02T19:33:09.712Z,99849.13
2023-03-02T19:35:37.739Z,99851.56
2023-03-02T19:38:05.808Z,99845.59
2023-03-02T19:40:32.649Z,99847.44
2023-03-02T19:42:59.451Z,99846.06
2023-03-02T19:45:29.554Z,99847.69
2023-03-02T19:47:57.811Z,99840.94
2023-03-02T19:50:25.691Z,99845.31
2023-03-02T19:52:54.761Z,99838.22
2023-03-02T19:55:24.182Z,99847.00
2023-03-02T19:57:57.262Z,99852.16
2023-03-02T20:00:24.214Z,99851.81
2023-03-02T20:02:50.899Z,99846.66
2023-03-02T20:05:18.005Z,99850.84
2023-03-02T20:07:45.162Z,99852.44
2023-03-02T20:10:40.546Z,99847.91
2023-03-02T20:13:08.715Z,99850.69
2023-03-02T20:15:39.117Z,99854.69
2023-03-02T20:18:07.594Z,99862.22
2023-03-02T20:20:34.340Z,99858.06
2023-03-02T20:23:00.912Z,99855.09
2023-03-02T20:25:28.603Z,99857.09
2023-03-02T20:27:55.958Z,99860.88
2023-03-02T20:30:30.913Z,99862.25
2023-03-02T20:32:59.792Z,99860.88
2023-03-02T20:35:30.254Z,99865.06
2023-03-02T20:37:58.672Z,99857.34
2023-03-02T20:40:26.183Z,99858.72
2023-03-02T20:42:53.441Z,99861.31
2023-03-02T20:45:20.584Z,99866.84
2023-03-02T20:47:47.824Z,99860.91
2023-03-02T20:50:18.997Z,99870.81
2023-03-02T20:52:47.055Z,99859.94
2023-03-02T20:55:13.889Z,99859.31
2023-03-02T20:57:40.772Z,99853.97
2023-03-02T21:00:11.830Z,99852.19
2023-03-02T21:02:38.418Z,99852.19
2023-03-02T21:05:06.608Z,99854.16
2023-03-02T21:07:35.971Z,99850.78
2023-03-02T21:10:05.925Z,99849.41
2023-03-02T21:12:33.281Z,99847.22
2023-03-02T21:15:02.000Z,99849.03
2023-03-02T21:17:30.727Z,99853.16
2023-03-02T21:19:58.204Z,99852.78
2023-03-02T21:22:24.993Z,99850.00
2023-03-02T21:24:52.996Z,99855.53
2023-03-02T21:27:20.155Z,99857.09
2023-03-02T21:29:47.220Z,99855.31
2023-03-02T21:32:14.522Z,99852.53
2023-03-02T21:34:41.052Z,99855.50
2023-03-02T21:37:07.723Z,99852.72
2023-03-02T21:39:34.424Z,99852.72
2023-03-02T21:42:01.169Z,99855.88
2023-03-02T21:44:27.843Z,99853.47
2023-03-02T21:46:54.750Z,99853.47
2023-03-02T21:49:22.913Z,99855.44
2023-03-02T21:51:50.098Z,99852.47
2023-03-02T21:54:17.090Z,99848.91
2023-03-02T21:56:44.040Z,99852.22
2023-03-02T21:59:11.284Z,99849.84
2023-03-02T22:01:37.944Z,99851.25
2023-03-02T22:04:04.839Z,99851.59
2023-03-02T22:06:33.201Z,99847.03
2023-03-02T22:09:01.385Z,99844.59
2023-03-02T22:11:34.653Z,99853.47
2023-03-02T22:14:07.972Z,99855.66
2023-03-02T22:16:40.171Z,99856.91
2023-03-02T22:19:25.582Z,99862.03
2023-03-02T22:21:54.310Z,99858.22
2023-03-02T22:24:31.834Z,99859.03
2023-03-02T22:27:04.861Z,99864.22
2023-03-02T22:29:34.512Z,99860.09
2023-03-02T22:32:15.567Z,99861.28
2023-03-02T22:34:43.614Z,99855.19
2023-03-02T22:37:17.506Z,99864.69
2023-03-02T22:39:45.469Z,99853.59
2023-03-02T22:42:15.975Z,99851.59
2023-03-02T22:44:43.245Z,99855.72
2023-03-02T22:47:15.822Z,99856.91
2023-03-02T22:49:43.037Z,99846.63
2023-03-02T22:52:21.908Z,99848.75
2023-03-02T22:54:48.836Z,99848.75
2023-03-02T22:57:31.721Z,99852.78
2023-03-02T23:00:18.547Z,99851.41
2023-03-02T23:02:46.050Z,99856.94
2023-03-02T23:05:38.843Z,99859.53
2023-03-02T23:08:25.134Z,99854.63
2023-03-02T23:10:54.486Z,99856.81
2023-03-02T23:13:24.649Z,99862.38
2023-03-02T23:15:53.123Z,99864.16
2023-03-02T23:18:28.866Z,99868.50
2023-03-02T23:20:56.045Z,99866.94
2023-03-02T23:23:24.598Z,99861.22
2023-03-02T23:25:51.215Z,99860.63
2023-03-02T23:28:17.861Z,99857.03
2023-03-02T23:30:45.264Z,99863.34
2023-03-02T23:33:12.017Z,99859.38
2023-03-02T23:35:38.736Z,99856.81
2023-03-02T23:38:05.331Z,99856.84
2023-03-02T23:40:31.947Z,99856.28
2023-03-02T23:42:58.711Z,99855.09
2023-03-02T23:45:26.474Z,99856.81
2023-03-02T23:47:53.124Z,99852.06
2023-03-02T23:50:19.905Z,99845.69
2023-03-02T23:52:46.593Z,99846.31
2023-03-02T23:55:13.352Z,99844.94
2023-03-02T23:57:39.941Z,99855.63
